PUA274 SUMU-SABE
Flight info
| Callsign | PUA274 |
|---|---|
| Flight time | 0h 29m |
| Altitude | 24000 |
| Route | DAGUS A306 UGIMI UGIMI8Q |
| Aircraft | A320/M-SDE3FGHIJ4RWY/LB1 |
Departure
| Time | 2026-04-22 18:29 |
|---|---|
| Airport | Carrasco General Cesáreo L. Berisso International Airport (SUMU) |
Arrival
| Time | 2026-04-22 18:59 |
|---|---|
| Airport | Aeroparque Jorge Newbery (SABE) |
| Time | Latitude | Longitude | Altitude | Speed | Heading |
|---|---|---|---|---|---|
| 2026-04-22 16:51 | -34.83654 | -56.01856 | 74 ft | 0 kts | 144° |
| 2026-04-22 18:18 | -34.83643 | -56.01866 | 63 ft | 2 kts | 144° |
| 2026-04-22 18:19 | -34.83629 | -56.01878 | 74 ft | 2 kts | 144° |
| 2026-04-22 18:19 | -34.83615 | -56.01890 | 74 ft | 2 kts | 144° |
| 2026-04-22 18:19 | -34.83601 | -56.01903 | 74 ft | 3 kts | 124° |
| 2026-04-22 18:19 | -34.83595 | -56.01922 | 74 ft | 2 kts | 88° |
| 2026-04-22 18:20 | -34.83598 | -56.01942 | 74 ft | 1 kts | 56° |
| 2026-04-22 18:23 | -34.83597 | -56.01940 | 74 ft | 1 kts | 57° |
| 2026-04-22 18:23 | -34.83587 | -56.01921 | 74 ft | 4 kts | 57° |
| 2026-04-22 18:23 | -34.83567 | -56.01886 | 74 ft | 6 kts | 54° |
| 2026-04-22 18:24 | -34.83498 | -56.01773 | 74 ft | 8 kts | 52° |
| 2026-04-22 18:24 | -34.83446 | -56.01764 | 69 ft | 9 kts | 332° |
| 2026-04-22 18:24 | -34.83364 | -56.01837 | 81 ft | 5 kts | 324° |
| 2026-04-22 18:25 | -34.83343 | -56.01855 | 85 ft | 3 kts | 324° |
| 2026-04-22 18:25 | -34.83332 | -56.01865 | 84 ft | 1 kts | 324° |
| 2026-04-22 18:25 | -34.83315 | -56.01880 | 86 ft | 2 kts | 324° |
| 2026-04-22 18:26 | -34.83301 | -56.01892 | 81 ft | 0 kts | 324° |
| 2026-04-22 18:26 | -34.83300 | -56.01893 | 84 ft | 1 kts | 324° |
| 2026-04-22 18:26 | -34.83283 | -56.01908 | 85 ft | 5 kts | 324° |
| 2026-04-22 18:26 | -34.83245 | -56.01941 | 87 ft | 8 kts | 322° |
| 2026-04-22 18:27 | -34.83205 | -56.01974 | 86 ft | 6 kts | 333° |
| 2026-04-22 18:27 | -34.83178 | -56.02000 | 82 ft | 1 kts | 274° |
| 2026-04-22 18:27 | -34.83186 | -56.02013 | 81 ft | 0 kts | 232° |
| 2026-04-22 18:28 | -34.83187 | -56.02015 | 81 ft | 2 kts | 232° |
| 2026-04-22 18:28 | -34.83233 | -56.02088 | 80 ft | 34 kts | 233° |
| 2026-04-22 18:29 | -34.83520 | -56.02561 | 93 ft | 102 kts | 234° |
| 2026-04-22 18:29 | -34.84057 | -56.03452 | 95 ft | 154 kts | 235° |
| 2026-04-22 18:29 | -34.84698 | -56.04495 | 720 ft | 153 kts | 235° |
| 2026-04-22 18:29 | -34.85334 | -56.05536 | 1372 ft | 156 kts | 235° |
| 2026-04-22 18:30 | -34.86046 | -56.06614 | 1831 ft | 172 kts | 223° |
| 2026-04-22 18:30 | -34.88514 | -56.07579 | 2748 ft | 204 kts | 197° |
| 2026-04-22 18:30 | -34.89955 | -56.08001 | 3172 ft | 223 kts | 197° |
| 2026-04-22 18:31 | -34.91523 | -56.08468 | 3732 ft | 240 kts | 197° |
| 2026-04-22 18:31 | -34.93190 | -56.08980 | 4436 ft | 252 kts | 197° |
| 2026-04-22 18:31 | -34.94900 | -56.09512 | 5355 ft | 255 kts | 198° |
| 2026-04-22 18:31 | -34.96520 | -56.10344 | 6276 ft | 253 kts | 218° |
| 2026-04-22 18:32 | -34.97703 | -56.11912 | 7149 ft | 254 kts | 241° |
| 2026-04-22 18:32 | -34.98211 | -56.13971 | 8010 ft | 259 kts | 265° |
| 2026-04-22 18:32 | -34.98227 | -56.16193 | 8818 ft | 265 kts | 268° |
| 2026-04-22 18:32 | -34.98229 | -56.18460 | 9610 ft | 269 kts | 268° |
| 2026-04-22 18:33 | -34.98235 | -56.20750 | 10364 ft | 274 kts | 268° |
| 2026-04-22 18:33 | -34.98238 | -56.23135 | 10791 ft | 290 kts | 268° |
| 2026-04-22 18:33 | -34.98240 | -56.25665 | 11178 ft | 306 kts | 268° |
| 2026-04-22 18:33 | -34.98244 | -56.28289 | 11799 ft | 312 kts | 268° |
| 2026-04-22 18:34 | -34.98250 | -56.30946 | 12578 ft | 313 kts | 269° |
| 2026-04-22 18:34 | -34.98258 | -56.33574 | 13319 ft | 315 kts | 269° |
| 2026-04-22 18:34 | -34.98267 | -56.36255 | 14039 ft | 317 kts | 269° |
| 2026-04-22 18:34 | -34.98272 | -56.38957 | 14732 ft | 320 kts | 269° |
| 2026-04-22 18:35 | -34.98278 | -56.41673 | 15388 ft | 322 kts | 269° |
| 2026-04-22 18:35 | -34.98285 | -56.44415 | 16051 ft | 324 kts | 270° |
| 2026-04-22 18:35 | -34.98292 | -56.47168 | 16680 ft | 326 kts | 270° |
| 2026-04-22 18:35 | -34.98295 | -56.49946 | 17304 ft | 329 kts | 270° |
| 2026-04-22 18:36 | -34.98295 | -56.52744 | 17922 ft | 331 kts | 270° |
| 2026-04-22 18:36 | -34.98293 | -56.55560 | 18519 ft | 334 kts | 271° |
| 2026-04-22 18:36 | -34.98292 | -56.58399 | 19138 ft | 336 kts | 271° |
| 2026-04-22 18:36 | -34.98291 | -56.61258 | 19761 ft | 338 kts | 271° |
| 2026-04-22 18:37 | -34.98290 | -56.64136 | 20369 ft | 341 kts | 271° |
| 2026-04-22 18:37 | -34.98290 | -56.67034 | 20964 ft | 343 kts | 271° |
| 2026-04-22 18:37 | -34.98293 | -56.68970 | 21334 ft | 345 kts | 271° |
| 2026-04-22 18:37 | -34.98301 | -56.72895 | 22065 ft | 347 kts | 271° |
| 2026-04-22 18:38 | -34.98301 | -56.75851 | 22582 ft | 350 kts | 271° |
| 2026-04-22 18:38 | -34.98297 | -56.78821 | 22956 ft | 351 kts | 271° |
| 2026-04-22 18:38 | -34.98292 | -56.80792 | 23205 ft | 352 kts | 272° |
| 2026-04-22 18:39 | -34.98281 | -56.86785 | 23951 ft | 355 kts | 272° |
| 2026-04-22 18:39 | -34.98274 | -56.89797 | 24071 ft | 350 kts | 272° |
| 2026-04-22 18:39 | -34.98266 | -56.92716 | 24091 ft | 342 kts | 272° |
| 2026-04-22 18:39 | -34.98256 | -56.95617 | 24091 ft | 342 kts | 272° |
| 2026-04-22 18:40 | -34.98244 | -56.98517 | 24095 ft | 342 kts | 272° |
| 2026-04-22 18:40 | -34.98234 | -57.01411 | 24093 ft | 342 kts | 272° |
| 2026-04-22 18:40 | -34.98224 | -57.04305 | 24090 ft | 342 kts | 272° |
| 2026-04-22 18:40 | -34.98214 | -57.07206 | 24090 ft | 342 kts | 272° |
| 2026-04-22 18:41 | -34.98203 | -57.10113 | 24100 ft | 348 kts | 272° |
| 2026-04-22 18:41 | -34.98191 | -57.13067 | 24097 ft | 342 kts | 272° |
| 2026-04-22 18:41 | -34.98181 | -57.15903 | 24101 ft | 327 kts | 272° |
| 2026-04-22 18:41 | -34.98168 | -57.18604 | 24101 ft | 311 kts | 272° |
| 2026-04-22 18:42 | -34.98155 | -57.21200 | 24102 ft | 305 kts | 272° |
| 2026-04-22 18:42 | -34.98139 | -57.23789 | 24099 ft | 301 kts | 272° |
| 2026-04-22 18:42 | -34.98124 | -57.26277 | 24068 ft | 287 kts | 272° |
| 2026-04-22 18:42 | -34.98110 | -57.28694 | 23611 ft | 287 kts | 273° |
| 2026-04-22 18:43 | -34.98093 | -57.31163 | 22884 ft | 295 kts | 272° |
| 2026-04-22 18:43 | -34.98073 | -57.33699 | 22141 ft | 303 kts | 272° |
| 2026-04-22 18:43 | -34.98056 | -57.36303 | 21439 ft | 309 kts | 272° |
| 2026-04-22 18:43 | -34.98041 | -57.38925 | 21000 ft | 306 kts | 272° |
| 2026-04-22 18:44 | -34.98025 | -57.41427 | 20835 ft | 281 kts | 272° |
| 2026-04-22 18:44 | -34.98020 | -57.43712 | 20282 ft | 264 kts | 272° |
| 2026-04-22 18:44 | -34.98010 | -57.45973 | 19149 ft | 268 kts | 272° |
| 2026-04-22 18:44 | -34.97987 | -57.48216 | 18173 ft | 267 kts | 272° |
| 2026-04-22 18:45 | -34.97967 | -57.50463 | 17469 ft | 264 kts | 272° |
| 2026-04-22 18:45 | -34.97946 | -57.52692 | 16879 ft | 260 kts | 271° |
| 2026-04-22 18:45 | -34.97924 | -57.54870 | 16395 ft | 254 kts | 271° |
| 2026-04-22 18:45 | -34.97901 | -57.57031 | 15616 ft | 258 kts | 271° |
| 2026-04-22 18:46 | -34.97880 | -57.59272 | 14715 ft | 275 kts | 271° |
| 2026-04-22 18:46 | -34.97857 | -57.61734 | 13811 ft | 305 kts | 270° |
| 2026-04-22 18:46 | -34.97832 | -57.64447 | 12920 ft | 335 kts | 270° |
| 2026-04-22 18:46 | -34.97805 | -57.67376 | 12050 ft | 349 kts | 270° |
| 2026-04-22 18:47 | -34.97778 | -57.70319 | 11381 ft | 344 kts | 270° |
| 2026-04-22 18:47 | -34.97750 | -57.73222 | 10666 ft | 342 kts | 269° |
| 2026-04-22 18:47 | -34.97721 | -57.76067 | 10499 ft | 325 kts | 269° |
| 2026-04-22 18:47 | -34.97692 | -57.78748 | 10443 ft | 308 kts | 269° |
| 2026-04-22 18:48 | -34.97663 | -57.81298 | 10304 ft | 294 kts | 269° |
| 2026-04-22 18:48 | -34.97634 | -57.83717 | 10295 ft | 277 kts | 269° |
| 2026-04-22 18:48 | -34.97607 | -57.86018 | 10108 ft | 269 kts | 269° |
| 2026-04-22 18:48 | -34.97329 | -57.88285 | 9663 ft | 274 kts | 284° |
| 2026-04-22 18:49 | -34.96495 | -57.90385 | 9362 ft | 276 kts | 301° |
| 2026-04-22 18:49 | -34.95162 | -57.92122 | 9231 ft | 287 kts | 316° |
| 2026-04-22 18:49 | -34.93598 | -57.93592 | 9115 ft | 288 kts | 317° |
| 2026-04-22 18:49 | -34.92012 | -57.95087 | 8988 ft | 288 kts | 317° |
| 2026-04-22 18:50 | -34.90427 | -57.96584 | 8861 ft | 288 kts | 317° |
| 2026-04-22 18:50 | -34.88848 | -57.98079 | 8759 ft | 287 kts | 317° |
| 2026-04-22 18:50 | -34.87270 | -57.99574 | 8653 ft | 287 kts | 317° |
| 2026-04-22 18:50 | -34.85702 | -58.01059 | 8396 ft | 285 kts | 317° |
| 2026-04-22 18:51 | -34.84124 | -58.02546 | 7998 ft | 286 kts | 317° |
| 2026-04-22 18:51 | -34.82554 | -58.04019 | 7670 ft | 284 kts | 317° |
| 2026-04-22 18:51 | -34.81003 | -58.05476 | 7241 ft | 279 kts | 317° |
| 2026-04-22 18:51 | -34.79467 | -58.06922 | 6600 ft | 279 kts | 317° |
| 2026-04-22 18:52 | -34.77943 | -58.08355 | 6001 ft | 276 kts | 317° |
| 2026-04-22 18:52 | -34.76432 | -58.09776 | 5442 ft | 272 kts | 317° |
| 2026-04-22 18:52 | -34.74990 | -58.11129 | 5296 ft | 252 kts | 317° |
| 2026-04-22 18:52 | -34.73658 | -58.12376 | 5183 ft | 232 kts | 317° |
| 2026-04-22 18:53 | -34.72422 | -58.13532 | 4923 ft | 220 kts | 317° |
| 2026-04-22 18:53 | -34.71212 | -58.14673 | 4423 ft | 220 kts | 316° |
| 2026-04-22 18:53 | -34.70153 | -58.15982 | 4009 ft | 214 kts | 302° |
| 2026-04-22 18:53 | -34.69346 | -58.17433 | 3948 ft | 198 kts | 299° |
| 2026-04-22 18:54 | -34.68585 | -58.18814 | 3880 ft | 197 kts | 299° |
| 2026-04-22 18:54 | -34.67823 | -58.20188 | 3831 ft | 196 kts | 299° |
| 2026-04-22 18:54 | -34.67061 | -58.21563 | 3744 ft | 196 kts | 300° |
| 2026-04-22 18:54 | -34.66300 | -58.22929 | 3635 ft | 193 kts | 300° |
| 2026-04-22 18:55 | -34.65567 | -58.24246 | 3526 ft | 184 kts | 299° |
| 2026-04-22 18:55 | -34.64853 | -58.25531 | 3271 ft | 182 kts | 300° |
| 2026-04-22 18:55 | -34.64154 | -58.26783 | 3011 ft | 181 kts | 300° |
| 2026-04-22 18:55 | -34.63455 | -58.28039 | 2718 ft | 178 kts | 300° |
| 2026-04-22 18:56 | -34.62770 | -58.29272 | 2435 ft | 175 kts | 301° |
| 2026-04-22 18:56 | -34.62089 | -58.30498 | 2186 ft | 176 kts | 302° |
| 2026-04-22 18:56 | -34.61411 | -58.31721 | 1933 ft | 173 kts | 303° |
| 2026-04-22 18:56 | -34.60743 | -58.32922 | 1689 ft | 171 kts | 304° |
| 2026-04-22 18:57 | -34.60076 | -58.34117 | 1442 ft | 170 kts | 305° |
| 2026-04-22 18:57 | -34.59423 | -58.35288 | 1217 ft | 162 kts | 304° |
| 2026-04-22 18:57 | -34.58832 | -58.36350 | 991 ft | 144 kts | 306° |
| 2026-04-22 18:57 | -34.58267 | -58.37361 | 793 ft | 144 kts | 306° |
| 2026-04-22 18:58 | -34.57701 | -58.38366 | 555 ft | 144 kts | 306° |
| 2026-04-22 18:58 | -34.57146 | -58.39374 | 320 ft | 144 kts | 305° |
| 2026-04-22 18:58 | -34.56589 | -58.40374 | 119 ft | 143 kts | 305° |
| 2026-04-22 18:58 | -34.56043 | -58.41360 | 28 ft | 133 kts | 304° |
| 2026-04-22 18:59 | -34.55657 | -58.42053 | 28 ft | 56 kts | 303° |
| 2026-04-22 18:59 | -34.55566 | -58.42217 | 28 ft | 17 kts | 303° |
| 2026-04-22 18:59 | -34.55481 | -58.42371 | 28 ft | 24 kts | 304° |
| 2026-04-22 18:59 | -34.55390 | -58.42502 | 27 ft | 13 kts | 1° |
| 2026-04-22 19:00 | -34.55364 | -58.42411 | 27 ft | 14 kts | 101° |
| 2026-04-22 19:00 | -34.55400 | -58.42321 | 27 ft | 9 kts | 126° |
| 2026-04-22 19:00 | -34.55442 | -58.42255 | 27 ft | 11 kts | 127° |
| 2026-04-22 19:00 | -34.55492 | -58.42172 | 27 ft | 14 kts | 127° |
| 2026-04-22 19:01 | -34.55519 | -58.42130 | 27 ft | 2 kts | 127° |
| 2026-04-22 19:01 | -34.55534 | -58.42104 | 27 ft | 5 kts | 127° |
| 2026-04-22 19:01 | -34.55561 | -58.42060 | 27 ft | 8 kts | 126° |
| 2026-04-22 19:01 | -34.55598 | -58.41998 | 27 ft | 10 kts | 126° |
| 2026-04-22 19:02 | -34.55644 | -58.41917 | 27 ft | 13 kts | 124° |
| 2026-04-22 19:02 | -34.55701 | -58.41814 | 26 ft | 14 kts | 123° |
| 2026-04-22 19:02 | -34.55745 | -58.41726 | 26 ft | 7 kts | 117° |
| 2026-04-22 19:02 | -34.55763 | -58.41683 | 27 ft | 0 kts | 117° |
| 2026-04-22 19:03 | -34.55766 | -58.41675 | 27 ft | 2 kts | 117° |
| 2026-04-22 19:03 | -34.55777 | -58.41650 | 27 ft | 4 kts | 117° |
| 2026-04-22 19:03 | -34.55786 | -58.41614 | 27 ft | 4 kts | 89° |
| 2026-04-22 19:03 | -34.55771 | -58.41586 | 27 ft | 4 kts | 43° |
| 2026-04-22 19:04 | -34.55750 | -58.41567 | 27 ft | 4 kts | 37° |
| 2026-04-22 19:04 | -34.55728 | -58.41540 | 27 ft | 5 kts | 60° |
| 2026-04-22 19:04 | -34.55722 | -58.41503 | 27 ft | 3 kts | 59° |
| 2026-04-22 19:04 | -34.55703 | -58.41490 | 27 ft | 3 kts | 26° |
| 2026-04-22 19:05 | -34.55685 | -58.41483 | 27 ft | 0 kts | 15° |